Time;durP1;ratioP1;P1;durP2;ratioP2;P2;SDS_P1;SDS_P2;PMS_P1;PMS_P2;Temp;Humidity;BMP_temperature;BMP_pressure;BME280_temperature;BME280_humidity;BME280_pressure;Samples;Min_cycle;Max_cycle;Signal;HPM_P1;HPM_P2
2021/06/22 00:01:46;;;;;;;9.80;7.38;;;17.00;99.90;;;;;;5004020;28;20113;-64
2021/06/22 00:04:12;;;;;;;9.45;6.22;;;17.00;99.90;;;;;;5008821;28;20095;-65
2021/06/22 00:06:37;;;;;;;8.63;7.20;;;17.00;99.90;;;;;;4999140;28;20021;-64
2021/06/22 00:09:03;;;;;;;8.77;6.63;;;17.00;99.90;;;;;;5007255;28;20037;-65
2021/06/22 00:11:29;;;;;;;7.25;6.47;;;16.90;99.90;;;;;;5007805;28;20034;-65
2021/06/22 00:13:54;;;;;;;9.25;7.55;;;16.90;99.90;;;;;;5007079;28;20353;-64
2021/06/22 00:16:20;;;;;;;7.90;6.88;;;16.90;99.90;;;;;;5006321;28;20105;-65
2021/06/22 00:18:46;;;;;;;11.82;7.85;;;16.80;99.90;;;;;;5007931;28;20044;-64
2021/06/22 00:21:12;;;;;;;12.18;7.82;;;16.90;99.90;;;;;;5004016;28;20057;-64
2021/06/22 00:23:38;;;;;;;11.40;8.52;;;16.90;99.90;;;;;;5007632;28;20038;-64
2021/06/22 00:26:03;;;;;;;10.00;8.57;;;16.90;99.90;;;;;;5007941;28;20381;-64
2021/06/22 00:28:29;;;;;;;10.63;8.70;;;16.80;99.90;;;;;;5007704;28;20053;-66
2021/06/22 00:30:54;;;;;;;13.75;8.55;;;16.70;99.90;;;;;;5006216;28;20077;-64
2021/06/22 00:33:20;;;;;;;11.27;8.80;;;16.70;99.90;;;;;;5005107;28;20487;-65
2021/06/22 00:35:45;;;;;;;10.32;7.28;;;16.60;99.90;;;;;;5003255;28;20448;-63
2021/06/22 00:38:11;;;;;;;9.18;6.35;;;16.60;99.90;;;;;;5008443;28;20042;-63
2021/06/22 00:40:36;;;;;;;6.13;5.53;;;16.60;99.90;;;;;;5002734;28;20140;-64
2021/06/22 00:43:03;;;;;;;7.18;5.78;;;16.60;99.90;;;;;;5009188;28;20028;-65
2021/06/22 00:45:31;;;;;;;10.43;5.95;;;16.60;99.90;;;;;;5002514;28;20083;-63
2021/06/22 00:47:57;;;;;;;6.65;5.28;;;16.60;99.90;;;;;;5003593;28;20428;-65
2021/06/22 00:50:23;;;;;;;6.28;4.63;;;16.60;99.90;;;;;;5005282;28;20176;-64
2021/06/22 00:52:49;;;;;;;9.13;5.22;;;16.60;99.90;;;;;;5007935;28;20133;-64
2021/06/22 00:55:28;;;;;;;8.15;5.38;;;16.60;99.90;;;;;;4990902;28;20036;-65
2021/06/22 00:57:57;;;;;;;5.13;4.63;;;16.60;99.90;;;;;;5005078;28;20029;-64
2021/06/22 01:00:23;;;;;;;5.07;4.38;;;16.60;99.90;;;;;;5008928;28;20104;-64
2021/06/22 01:02:48;;;;;;;7.10;4.13;;;16.60;99.90;;;;;;5008838;28;20460;-66
2021/06/22 01:05:14;;;;;;;10.07;4.00;;;16.60;99.90;;;;;;5006337;28;20022;-64
2021/06/22 01:07:40;;;;;;;5.32;4.80;;;16.60;99.90;;;;;;5004121;28;20041;-63
2021/06/22 01:10:06;;;;;;;5.75;3.88;;;16.60;99.90;;;;;;5004360;28;20033;-65
2021/06/22 01:12:32;;;;;;;6.97;4.07;;;16.60;99.90;;;;;;5003650;28;20026;-64
2021/06/22 01:14:57;;;;;;;3.33;3.00;;;16.50;99.90;;;;;;5004350;28;20108;-62
2021/06/22 01:17:23;;;;;;;3.75;2.67;;;16.50;99.90;;;;;;5006695;28;20054;-64
2021/06/22 01:19:48;;;;;;;3.53;3.10;;;16.50;99.90;;;;;;5006430;28;20030;-64
2021/06/22 01:22:14;;;;;;;3.70;3.05;;;16.50;99.90;;;;;;5004081;28;20467;-64
2021/06/22 01:24:40;;;;;;;3.50;2.50;;;16.50;99.90;;;;;;5005745;28;20511;-65
2021/06/22 01:27:06;;;;;;;4.78;1.98;;;16.50;99.90;;;;;;5006579;28;20034;-64
2021/06/22 01:29:32;;;;;;;4.45;2.22;;;16.50;99.90;;;;;;5003868;28;20101;-65
2021/06/22 01:31:58;;;;;;;3.30;1.73;;;16.40;99.90;;;;;;5006518;28;20466;-61
2021/06/22 01:34:26;;;;;;;5.25;1.98;;;16.50;99.90;;;;;;5006289;28;20034;-64
2021/06/22 01:36:53;;;;;;;2.40;2.00;;;16.40;99.90;;;;;;5002073;28;20112;-65
2021/06/22 01:39:19;;;;;;;4.35;1.92;;;16.40;99.90;;;;;;5001006;28;20077;-64
2021/06/22 01:41:45;;;;;;;2.92;1.90;;;16.40;99.90;;;;;;5006203;28;20109;-64
2021/06/22 01:44:11;;;;;;;5.05;1.98;;;16.40;99.90;;;;;;5003406;28;20403;-65
2021/06/22 01:46:36;;;;;;;3.35;2.05;;;16.40;99.90;;;;;;5008596;28;20044;-62
2021/06/22 01:49:03;;;;;;;2.67;2.00;;;16.40;99.90;;;;;;5011932;28;20025;-64
2021/06/22 01:51:29;;;;;;;3.95;1.90;;;16.30;99.90;;;;;;5012180;28;20109;-63
2021/06/22 01:53:57;;;;;;;4.32;2.03;;;16.30;99.90;;;;;;5009761;28;20109;-65
2021/06/22 01:56:24;;;;;;;2.53;1.95;;;16.30;99.90;;;;;;5007896;28;20412;-65
2021/06/22 01:58:50;;;;;;;4.70;2.05;;;16.30;99.90;;;;;;5010194;28;20034;-65
2021/06/22 02:01:16;;;;;;;2.20;1.90;;;16.20;99.90;;;;;;5006228;28;20037;-64
2021/06/22 02:03:41;;;;;;;2.88;1.88;;;16.30;99.90;;;;;;5010628;28;20101;-65
2021/06/22 02:06:07;;;;;;;4.55;2.45;;;16.30;99.90;;;;;;5006546;28;20029;-63
2021/06/22 02:08:33;;;;;;;5.45;2.42;;;16.20;99.90;;;;;;5007267;28;20053;-64
2021/06/22 02:10:59;;;;;;;3.70;2.05;;;16.20;99.90;;;;;;5008445;28;20030;-64
2021/06/22 02:13:26;;;;;;;7.07;2.28;;;16.20;99.90;;;;;;5004161;28;20038;-65
2021/06/22 02:15:52;;;;;;;3.08;2.42;;;16.20;99.90;;;;;;5010799;28;20026;-65
2021/06/22 02:18:17;;;;;;;5.45;2.80;;;16.20;99.90;;;;;;5010179;28;20076;-64
2021/06/22 02:20:43;;;;;;;6.82;2.50;;;16.20;99.90;;;;;;5005814;28;20346;-66
2021/06/22 02:23:10;;;;;;;4.40;2.22;;;16.20;99.90;;;;;;5007863;28;20345;-64
2021/06/22 02:25:36;;;;;;;4.72;2.00;;;16.20;99.90;;;;;;5008859;28;20049;-64
2021/06/22 02:28:09;;;;;;;5.50;2.60;;;16.20;99.90;;;;;;5007051;28;20176;-64
2021/06/22 02:30:36;;;;;;;4.15;2.10;;;16.10;99.90;;;;;;5011307;28;20097;-64
2021/06/22 02:33:02;;;;;;;2.70;1.95;;;16.10;99.90;;;;;;5008777;28;20067;-64
2021/06/22 02:35:28;;;;;;;6.57;2.78;;;16.10;99.90;;;;;;5008724;28;20030;-66
2021/06/22 02:37:53;;;;;;;5.88;2.53;;;16.10;99.90;;;;;;5001326;28;20026;-64
2021/06/22 02:40:21;;;;;;;6.95;2.67;;;16.10;99.90;;;;;;5005804;28;20088;-64
2021/06/22 02:42:47;;;;;;;3.85;2.72;;;16.10;99.90;;;;;;5009232;28;20432;-64
2021/06/22 02:45:15;;;;;;;4.00;2.60;;;16.10;99.90;;;;;;5005197;28;20029;-65
2021/06/22 02:47:41;;;;;;;5.43;2.78;;;16.10;99.90;;;;;;5005970;28;20444;-65
2021/06/22 02:50:07;;;;;;;2.95;2.60;;;16.10;99.90;;;;;;5010479;28;20521;-64
2021/06/22 02:52:33;;;;;;;4.53;2.75;;;16.10;99.90;;;;;;5010468;28;20380;-65
2021/06/22 02:54:58;;;;;;;6.05;2.95;;;16.10;99.90;;;;;;5005048;28;20144;-64
2021/06/22 02:57:24;;;;;;;4.88;3.00;;;16.10;99.90;;;;;;5004709;28;20026;-64
2021/06/22 02:59:50;;;;;;;4.13;2.92;;;16.10;99.90;;;;;;5010521;28;20099;-63
2021/06/22 03:02:16;;;;;;;7.70;4.10;;;16.10;99.90;;;;;;5006569;28;20041;-65
2021/06/22 03:04:41;;;;;;;11.90;6.70;;;16.10;99.90;;;;;;5000545;28;20114;-65
2021/06/22 03:07:07;;;;;;;10.13;6.25;;;16.00;99.90;;;;;;5006298;28;20091;-66
2021/06/22 03:09:32;;;;;;;15.52;9.40;;;16.00;99.90;;;;;;5010720;28;20519;-64
2021/06/22 03:11:58;;;;;;;14.38;9.02;;;16.00;99.90;;;;;;5005167;28;20044;-62
2021/06/22 03:14:25;;;;;;;16.92;9.35;;;15.90;99.90;;;;;;5004088;28;20022;-64
2021/06/22 03:16:51;;;;;;;19.00;9.75;;;15.90;99.90;;;;;;5006103;28;20042;-64
2021/06/22 03:19:18;;;;;;;26.23;13.52;;;15.90;99.90;;;;;;5004222;28;20179;-65
2021/06/22 03:21:44;;;;;;;21.25;11.65;;;15.90;99.90;;;;;;5004985;28;20042;-66
2021/06/22 03:24:11;;;;;;;22.75;12.90;;;15.90;99.90;;;;;;5003282;28;20044;-64
2021/06/22 03:26:37;;;;;;;22.20;13.35;;;15.90;99.90;;;;;;5005902;28;20110;-64
2021/06/22 03:29:03;;;;;;;26.52;13.23;;;15.90;99.90;;;;;;5004203;28;20053;-64
2021/06/22 03:31:29;;;;;;;22.02;12.68;;;15.80;99.90;;;;;;4992157;28;20445;-64
2021/06/22 03:33:55;;;;;;;21.58;12.95;;;15.80;99.90;;;;;;5009760;28;20041;-65
2021/06/22 03:36:20;;;;;;;21.73;12.40;;;15.80;99.90;;;;;;5009907;28;20505;-65
2021/06/22 03:38:46;;;;;;;24.73;12.48;;;15.80;99.90;;;;;;5004699;28;20030;-63
2021/06/22 03:41:12;;;;;;;17.55;11.02;;;15.80;99.90;;;;;;5007846;28;20030;-65
2021/06/22 03:43:37;;;;;;;23.48;10.93;;;15.70;99.90;;;;;;5007195;28;20433;-64
2021/06/22 03:46:07;;;;;;;16.48;11.25;;;15.70;99.90;;;;;;5007067;28;20061;-65
2021/06/22 03:48:33;;;;;;;19.85;11.18;;;15.60;99.90;;;;;;5007341;28;20488;-61
2021/06/22 03:50:58;;;;;;;20.73;11.32;;;15.50;99.90;;;;;;5007792;28;20341;-64
2021/06/22 03:53:24;;;;;;;17.63;10.75;;;15.50;99.90;;;;;;5006425;28;20509;-65
2021/06/22 03:55:49;;;;;;;20.90;11.82;;;15.50;99.90;;;;;;5003241;28;20092;-65
2021/06/22 03:58:15;;;;;;;15.43;9.90;;;15.40;99.90;;;;;;5007343;28;20024;-65
2021/06/22 04:00:41;;;;;;;17.08;9.65;;;15.40;99.90;;;;;;5006114;28;20113;-65
2021/06/22 04:03:06;;;;;;;16.30;9.38;;;15.50;99.90;;;;;;5005628;28;20027;-65
2021/06/22 04:05:32;;;;;;;14.70;8.77;;;15.40;99.90;;;;;;5005818;28;20030;-65
2021/06/22 04:08:00;;;;;;;14.02;8.00;;;15.50;99.90;;;;;;5008977;28;20551;-65
2021/06/22 04:10:26;;;;;;;10.40;7.20;;;15.50;99.90;;;;;;5003379;28;20041;-65
2021/06/22 04:12:52;;;;;;;13.40;7.40;;;15.50;99.90;;;;;;5002238;28;20046;-65
2021/06/22 04:15:18;;;;;;;7.60;5.68;;;15.50;99.90;;;;;;5004069;28;20045;-64
2021/06/22 04:17:43;;;;;;;11.82;5.15;;;15.50;99.90;;;;;;5008998;28;20037;-64
2021/06/22 04:20:10;;;;;;;9.13;4.60;;;15.50;99.90;;;;;;5009229;28;20511;-63
2021/06/22 04:22:36;;;;;;;8.27;5.20;;;15.50;99.90;;;;;;5003493;28;20029;-64
2021/06/22 04:25:01;;;;;;;10.38;5.38;;;15.50;99.90;;;;;;5001984;28;20081;-64
2021/06/22 04:27:27;;;;;;;10.38;5.82;;;15.40;99.90;;;;;;5001769;28;20029;-65
2021/06/22 04:29:53;;;;;;;10.07;6.90;;;15.40;99.90;;;;;;4999547;28;20025;-64
2021/06/22 04:32:18;;;;;;;10.05;6.85;;;15.40;99.90;;;;;;5006781;28;20026;-64
2021/06/22 04:34:44;;;;;;;8.50;5.72;;;15.40;99.90;;;;;;5004924;28;20049;-64
2021/06/22 04:37:09;;;;;;;11.32;6.15;;;15.50;99.90;;;;;;5007106;28;20033;-65
2021/06/22 04:39:35;;;;;;;12.48;6.45;;;15.50;99.90;;;;;;5005766;28;20056;-65
2021/06/22 04:42:01;;;;;;;13.70;5.75;;;15.40;99.90;;;;;;5002466;28;20321;-65
2021/06/22 04:44:26;;;;;;;9.80;4.57;;;15.40;99.90;;;;;;4998209;28;20092;-65
2021/06/22 04:46:52;;;;;;;8.48;4.57;;;15.40;99.90;;;;;;4985861;28;20034;-65
2021/06/22 04:49:17;;;;;;;8.32;4.80;;;15.40;99.90;;;;;;4999903;28;20031;-65
2021/06/22 04:51:43;;;;;;;8.07;4.50;;;15.40;99.90;;;;;;5005593;28;20084;-65
2021/06/22 04:54:10;;;;;;;7.60;4.07;;;15.40;99.90;;;;;;5001292;28;20027;-65
2021/06/22 04:56:36;;;;;;;5.97;4.22;;;15.40;99.90;;;;;;5002558;28;20029;-64
2021/06/22 04:59:03;;;;;;;10.63;4.40;;;15.40;99.90;;;;;;5006845;28;20030;-64
2021/06/22 05:01:28;;;;;;;5.35;3.53;;;15.50;99.90;;;;;;5006260;28;20033;-63
2021/06/22 05:03:54;;;;;;;5.75;3.92;;;15.50;99.90;;;;;;5004112;28;20679;-65
2021/06/22 05:06:20;;;;;;;6.25;4.35;;;15.50;99.90;;;;;;5003426;28;20038;-64
2021/06/22 05:08:46;;;;;;;6.68;5.00;;;15.40;99.90;;;;;;5001363;28;20034;-64
2021/06/22 05:11:11;;;;;;;8.02;4.20;;;15.40;99.90;;;;;;5038723;23;20621;-61
2021/06/22 05:13:37;;;;;;;5.28;4.00;;;15.40;99.90;;;;;;5029419;28;20021;-63
2021/06/22 05:16:03;;;;;;;11.60;4.47;;;15.40;99.90;;;;;;5029736;28;20097;-62
2021/06/22 05:18:29;;;;;;;7.85;4.15;;;15.30;99.90;;;;;;5025074;28;20025;-63
2021/06/22 05:20:55;;;;;;;7.72;3.95;;;15.20;99.90;;;;;;5031299;28;20384;-63
2021/06/22 05:23:20;;;;;;;7.75;4.75;;;15.30;99.90;;;;;;5031917;28;20119;-63
2021/06/22 05:25:46;;;;;;;6.32;3.75;;;15.30;99.90;;;;;;5032222;28;20033;-64
2021/06/22 05:28:12;;;;;;;4.88;3.67;;;15.30;99.90;;;;;;5035682;28;20052;-63
2021/06/22 05:30:37;;;;;;;5.43;3.78;;;15.30;99.90;;;;;;5031847;28;20549;-64
2021/06/22 05:33:03;;;;;;;4.70;3.20;;;15.30;99.90;;;;;;5033148;28;20474;-64
2021/06/22 05:35:29;;;;;;;6.72;3.72;;;15.30;99.90;;;;;;5033010;28;20095;-63
2021/06/22 05:37:54;;;;;;;9.48;4.13;;;15.40;99.90;;;;;;5039432;28;20041;-63
2021/06/22 05:40:20;;;;;;;10.13;3.47;;;15.30;99.90;;;;;;5026702;28;20044;-63
2021/06/22 05:42:46;;;;;;;5.53;4.00;;;15.20;99.90;;;;;;5028906;28;20038;-64
2021/06/22 05:45:12;;;;;;;6.35;3.90;;;15.20;99.90;;;;;;5032876;28;20045;-64
2021/06/22 05:47:37;;;;;;;8.52;3.78;;;15.10;99.90;;;;;;5036660;28;20113;-64
2021/06/22 05:50:04;;;;;;;8.15;4.13;;;15.10;99.90;;;;;;5032616;28;20497;-64
2021/06/22 05:52:29;;;;;;;7.03;4.70;;;14.90;99.90;;;;;;5032558;28;20026;-65
2021/06/22 05:54:55;;;;;;;6.85;4.55;;;14.80;99.90;;;;;;5032631;28;20469;-64
2021/06/22 05:57:21;;;;;;;9.57;4.80;;;14.70;99.90;;;;;;5032724;28;20033;-65
2021/06/22 05:59:46;;;;;;;8.50;4.22;;;14.60;99.90;;;;;;5033046;28;20376;-64
2021/06/22 06:02:12;;;;;;;14.13;5.80;;;14.50;99.90;;;;;;5032541;28;20029;-65
2021/06/22 06:04:37;;;;;;;11.63;5.97;;;14.50;99.90;;;;;;5032501;28;20029;-64
2021/06/22 06:07:03;;;;;;;15.95;5.47;;;14.40;99.90;;;;;;5033209;28;20073;-64
2021/06/22 06:09:29;;;;;;;11.95;6.00;;;14.40;99.90;;;;;;5028703;28;20545;-64
2021/06/22 06:11:55;;;;;;;13.30;6.32;;;14.30;99.90;;;;;;5032011;28;20048;-64
2021/06/22 06:14:21;;;;;;;11.57;6.13;;;14.30;99.90;;;;;;5032439;28;20045;-64
2021/06/22 06:16:47;;;;;;;11.27;6.63;;;14.30;99.90;;;;;;5032010;28;20435;-64
2021/06/22 06:19:13;;;;;;;11.05;5.90;;;14.30;99.90;;;;;;5015342;28;20025;-64
2021/06/22 06:21:39;;;;;;;12.88;6.40;;;14.30;99.90;;;;;;5033290;28;20121;-64
2021/06/22 06:24:06;;;;;;;19.13;6.35;;;14.30;99.90;;;;;;5032768;28;20021;-64
2021/06/22 06:26:40;;;;;;;15.57;6.40;;;14.30;99.90;;;;;;5031427;28;20068;-64
2021/06/22 06:29:16;;;;;;;17.30;7.43;;;14.30;99.90;;;;;;5033502;28;20474;-64
2021/06/22 06:31:42;;;;;;;11.65;6.78;;;14.40;99.90;;;;;;5033215;28;20029;-65
2021/06/22 06:34:07;;;;;;;15.77;7.20;;;14.40;99.90;;;;;;5031687;28;20025;-65
2021/06/22 06:36:33;;;;;;;14.40;7.32;;;14.40;99.90;;;;;;5031870;28;20207;-65
2021/06/22 06:38:58;;;;;;;19.67;8.43;;;14.50;99.90;;;;;;5037250;28;20061;-65
2021/06/22 06:41:24;;;;;;;17.75;8.15;;;14.50;99.90;;;;;;5029611;28;20116;-65
2021/06/22 06:43:50;;;;;;;15.68;8.07;;;14.60;99.90;;;;;;5032632;28;20056;-64
2021/06/22 06:46:15;;;;;;;13.32;7.22;;;14.60;99.90;;;;;;5013909;28;20108;-65
2021/06/22 06:48:42;;;;;;;10.98;6.75;;;14.70;99.90;;;;;;5032158;28;20033;-65
2021/06/22 06:51:07;;;;;;;14.75;7.00;;;14.80;99.90;;;;;;5031161;28;20025;-64
2021/06/22 06:53:33;;;;;;;11.27;6.65;;;14.80;99.90;;;;;;5032012;28;20133;-64
2021/06/22 06:55:58;;;;;;;16.63;6.70;;;14.80;99.90;;;;;;5031331;28;20037;-64
2021/06/22 06:58:24;;;;;;;13.40;5.82;;;14.80;99.90;;;;;;5034721;28;20029;-64
2021/06/22 07:00:50;;;;;;;10.02;6.47;;;14.90;99.90;;;;;;5030739;28;20026;-64
2021/06/22 07:03:15;;;;;;;12.32;6.70;;;15.00;99.90;;;;;;5032280;28;20029;-64
2021/06/22 07:05:41;;;;;;;11.85;6.18;;;15.10;99.90;;;;;;5030224;28;20479;-64
2021/06/22 07:08:06;;;;;;;12.95;6.00;;;15.20;99.90;;;;;;5031291;28;20514;-64
2021/06/22 07:10:33;;;;;;;12.27;5.82;;;15.30;99.90;;;;;;5031801;28;20033;-64
2021/06/22 07:13:00;;;;;;;12.27;6.22;;;15.30;99.90;;;;;;5013693;28;20526;-64
2021/06/22 07:15:26;;;;;;;8.90;6.18;;;15.30;99.90;;;;;;5031643;28;20021;-64
2021/06/22 07:17:52;;;;;;;11.98;5.93;;;15.30;99.90;;;;;;5031494;28;20029;-64
2021/06/22 07:20:18;;;;;;;11.77;5.70;;;15.30;99.90;;;;;;5031072;28;20026;-64
2021/06/22 07:22:44;;;;;;;11.07;5.43;;;15.50;99.90;;;;;;5031531;28;20029;-64
2021/06/22 07:25:10;;;;;;;11.13;6.10;;;15.60;99.90;;;;;;5031567;28;20032;-65
2021/06/22 07:27:36;;;;;;;11.95;5.53;;;15.60;99.90;;;;;;5031105;28;20096;-64
2021/06/22 07:30:03;;;;;;;11.80;5.65;;;15.70;99.90;;;;;;5031417;28;20029;-64
2021/06/22 07:32:29;;;;;;;14.32;5.57;;;15.70;99.90;;;;;;5031342;28;20035;-64
2021/06/22 07:34:54;;;;;;;9.00;4.32;;;15.70;99.90;;;;;;5031381;28;20033;-63
2021/06/22 07:37:20;;;;;;;8.85;5.20;;;15.70;99.90;;;;;;5031153;28;20124;-65
2021/06/22 07:39:45;;;;;;;9.75;5.45;;;15.80;99.90;;;;;;5031329;28;20094;-65
2021/06/22 07:42:11;;;;;;;9.82;5.10;;;15.80;99.90;;;;;;5030066;28;20026;-65
2021/06/22 07:44:36;;;;;;;8.00;4.55;;;15.90;99.90;;;;;;5031848;28;20361;-64
2021/06/22 07:47:02;;;;;;;8.73;5.15;;;15.90;99.90;;;;;;5031182;28;20040;-64
2021/06/22 07:49:28;;;;;;;8.73;4.22;;;15.90;99.90;;;;;;5031088;28;20036;-65
2021/06/22 07:51:53;;;;;;;6.45;4.32;;;16.00;99.90;;;;;;5031063;28;20026;-64
2021/06/22 07:54:19;;;;;;;6.25;4.65;;;16.00;99.90;;;;;;5031225;28;20026;-64
2021/06/22 07:56:45;;;;;;;13.20;4.80;;;16.00;99.90;;;;;;5013205;28;20491;-64
2021/06/22 07:59:10;;;;;;;8.38;4.32;;;16.00;99.90;;;;;;5030665;28;20030;-64
2021/06/22 08:01:36;;;;;;;11.88;4.82;;;15.90;99.90;;;;;;5031069;28;20061;-64
2021/06/22 08:04:02;;;;;;;12.10;6.35;;;15.90;99.90;;;;;;5030928;28;20097;-64
2021/06/22 08:06:27;;;;;;;9.02;5.50;;;15.90;99.90;;;;;;5030670;28;20025;-64
2021/06/22 08:08:53;;;;;;;10.88;6.32;;;15.80;99.90;;;;;;5030706;28;20033;-64
2021/06/22 08:11:18;;;;;;;9.60;5.88;;;15.80;99.90;;;;;;5030406;28;20068;-64
2021/06/22 08:13:44;;;;;;;15.98;6.43;;;15.80;99.90;;;;;;5030745;28;20095;-65
2021/06/22 08:16:10;;;;;;;13.45;6.25;;;15.80;99.90;;;;;;5030192;28;20074;-68
2021/06/22 08:18:36;;;;;;;12.10;6.00;;;15.80;99.90;;;;;;5030485;28;20048;-65
2021/06/22 08:21:03;;;;;;;11.30;6.07;;;15.80;99.90;;;;;;5030559;28;20026;-67
2021/06/22 08:23:29;;;;;;;10.15;6.10;;;15.80;99.90;;;;;;5030601;28;20072;-66
2021/06/22 08:25:55;;;;;;;10.15;4.93;;;15.90;99.90;;;;;;5030042;28;20115;-66
2021/06/22 08:28:21;;;;;;;10.75;4.95;;;15.90;99.90;;;;;;5030002;28;20021;-67
2021/06/22 08:30:48;;;;;;;6.75;4.10;;;15.90;99.90;;;;;;5029753;28;20407;-66
2021/06/22 08:33:14;;;;;;;6.25;3.95;;;16.00;99.90;;;;;;5030846;28;20407;-66
2021/06/22 08:35:40;;;;;;;13.95;3.85;;;16.00;99.90;;;;;;5031458;28;20029;-64
2021/06/22 08:38:08;;;;;;;7.75;3.88;;;15.90;99.90;;;;;;5031561;28;20100;-64
2021/06/22 08:40:35;;;;;;;7.22;3.55;;;15.90;99.90;;;;;;5031656;28;20025;-65
2021/06/22 08:43:01;;;;;;;6.03;3.50;;;15.90;99.90;;;;;;5031649;28;20024;-65
2021/06/22 08:45:27;;;;;;;6.07;3.70;;;16.00;99.90;;;;;;5031566;28;20029;-65
2021/06/22 08:47:53;;;;;;;11.77;4.30;;;16.00;99.90;;;;;;5031391;28;20022;-65
2021/06/22 08:50:19;;;;;;;12.30;3.60;;;16.00;99.90;;;;;;5031138;28;20188;-65
2021/06/22 08:52:45;;;;;;;9.98;3.42;;;16.10;99.90;;;;;;5031534;28;20037;-66
2021/06/22 08:55:28;;;;;;;7.03;3.80;;;16.10;99.90;;;;;;5030514;28;20144;-67
2021/06/22 08:58:02;;;;;;;9.30;3.88;;;16.20;99.90;;;;;;5031253;28;20029;-66
2021/06/22 09:00:30;;;;;;;9.27;4.65;;;16.10;99.90;;;;;;5031621;28;20025;-65
2021/06/22 09:03:08;;;;;;;7.47;4.72;;;16.20;99.90;;;;;;5031780;28;20029;-65
2021/06/22 09:05:33;;;;;;;14.07;4.75;;;16.20;99.90;;;;;;5028259;28;20025;-65
2021/06/22 09:07:59;;;;;;;9.80;3.75;;;16.30;99.90;;;;;;5031243;28;20171;-65
2021/06/22 09:10:33;;;;;;;11.10;4.32;;;16.30;99.90;;;;;;5031117;28;20033;-65
2021/06/22 09:13:11;;;;;;;10.27;3.67;;;16.30;99.90;;;;;;5023149;28;20025;-65
2021/06/22 09:15:39;;;;;;;9.65;3.90;;;16.40;99.90;;;;;;5025918;28;20112;-64
2021/06/22 09:18:05;;;;;;;8.02;4.35;;;16.50;99.90;;;;;;5030859;28;20037;-66
2021/06/22 09:20:42;;;;;;;6.65;3.92;;;16.50;99.90;;;;;;5030951;28;20518;-65
2021/06/22 09:23:19;;;;;;;9.10;4.50;;;16.50;99.90;;;;;;5031330;28;20025;-67
2021/06/22 09:25:46;;;;;;;7.93;4.50;;;16.50;99.90;;;;;;5030736;28;20434;-67
2021/06/22 09:28:14;;;;;;;5.63;3.78;;;16.50;99.90;;;;;;5031186;28;20036;-65
2021/06/22 09:30:41;;;;;;;12.65;5.07;;;16.50;99.90;;;;;;5030986;28;20109;-64
2021/06/22 09:33:17;;;;;;;12.30;4.38;;;16.60;99.90;;;;;;5031305;28;20026;-65
2021/06/22 09:35:44;;;;;;;11.32;4.32;;;16.70;99.90;;;;;;5030762;28;20030;-65
2021/06/22 09:38:10;;;;;;;9.00;3.97;;;16.70;99.90;;;;;;5030874;28;20030;-66
2021/06/22 09:40:36;;;;;;;8.88;4.30;;;16.70;99.90;;;;;;5030671;28;20025;-65
2021/06/22 09:43:01;;;;;;;6.80;4.47;;;16.60;99.90;;;;;;5030989;28;20033;-64
2021/06/22 09:45:29;;;;;;;9.50;4.00;;;16.60;99.90;;;;;;5030625;28;20030;-64
2021/06/22 09:48:00;;;;;;;9.60;4.15;;;16.70;99.90;;;;;;5031033;28;20033;-66
2021/06/22 09:50:39;;;;;;;7.18;4.07;;;16.70;99.90;;;;;;5030663;28;20034;-64
2021/06/22 09:53:32;;;;;;;7.18;4.05;;;16.90;99.90;;;;;;5031043;28;20021;-64
2021/06/22 09:56:00;;;;;;;8.60;3.40;;;16.90;99.90;;;;;;5030409;28;20033;-64
2021/06/22 09:58:42;;;;;;;6.97;4.00;;;17.10;99.90;;;;;;5024506;28;20373;-63
2021/06/22 10:01:28;;;;;;;12.30;4.47;;;17.10;99.90;;;;;;5030660;28;20028;-63
2021/06/22 10:03:55;;;;;;;6.22;3.75;;;17.20;99.90;;;;;;5030323;28;20084;-65
2021/06/22 10:06:21;;;;;;;12.10;5.55;;;17.20;99.90;;;;;;5031967;28;20030;-64
2021/06/22 10:08:57;;;;;;;12.85;4.05;;;17.20;99.90;;;;;;5034343;28;20100;-64
2021/06/22 10:11:37;;;;;;;11.32;4.40;;;17.30;99.90;;;;;;5033871;28;20039;-63
2021/06/22 10:14:05;;;;;;;10.15;3.92;;;17.40;99.90;;;;;;5034123;28;20075;-64
2021/06/22 10:16:33;;;;;;;12.30;3.60;;;17.40;99.90;;;;;;5033686;28;20411;-65
2021/06/22 10:19:05;;;;;;;20.75;5.18;;;17.40;99.90;;;;;;5033779;28;20541;-64
2021/06/22 10:21:32;;;;;;;10.32;4.28;;;17.30;99.90;;;;;;5034047;28;20045;-64
2021/06/22 10:23:58;;;;;;;14.77;4.90;;;17.30;99.90;;;;;;5034216;28;20095;-64
2021/06/22 10:26:27;;;;;;;13.02;5.32;;;17.20;99.90;;;;;;5033342;28;20032;-63
2021/06/22 10:28:54;;;;;;;12.65;5.25;;;17.20;99.90;;;;;;5033625;28;20470;-62
2021/06/22 10:31:20;;;;;;;13.02;4.97;;;17.20;99.90;;;;;;5033638;28;20030;-64
2021/06/22 10:33:45;;;;;;;13.90;5.00;;;17.40;99.90;;;;;;5033444;28;20044;-62
2021/06/22 10:36:27;;;;;;;9.40;5.20;;;17.50;99.90;;;;;;5033237;28;20079;-64
2021/06/22 10:38:56;;;;;;;7.95;5.18;;;17.60;99.90;;;;;;5033568;28;20032;-66
2021/06/22 10:41:24;;;;;;;10.57;5.30;;;17.50;99.90;;;;;;5033085;28;20112;-63
2021/06/22 10:43:50;;;;;;;12.10;5.10;;;17.50;99.90;;;;;;5033605;28;20030;-64
2021/06/22 10:46:20;;;;;;;13.68;4.90;;;17.50;99.90;;;;;;5033212;28;20074;-64
2021/06/22 10:48:49;;;;;;;7.10;4.88;;;17.40;99.90;;;;;;5033461;28;20033;-64
2021/06/22 10:51:36;;;;;;;10.80;4.55;;;17.40;99.90;;;;;;5033370;28;20069;-64
2021/06/22 10:54:02;;;;;;;11.60;5.10;;;17.50;99.90;;;;;;5033401;28;20395;-64
2021/06/22 10:56:29;;;;;;;7.55;4.20;;;17.60;99.90;;;;;;5032708;28;20030;-64
2021/06/22 10:59:14;;;;;;;9.25;4.45;;;17.70;99.90;;;;;;5033252;28;20065;-64
2021/06/22 11:01:49;;;;;;;7.20;3.63;;;17.80;99.90;;;;;;5033154;28;20365;-64
2021/06/22 11:04:15;;;;;;;7.85;4.05;;;17.90;99.90;;;;;;5032745;28;20037;-65
2021/06/22 11:06:41;;;;;;;11.70;5.28;;;18.00;99.90;;;;;;5031444;28;20025;-64
2021/06/22 11:09:17;;;;;;;9.95;4.95;;;18.10;99.90;;;;;;5032937;28;20026;-65
2021/06/22 11:11:43;;;;;;;13.23;4.75;;;18.00;99.90;;;;;;5055355;22;20072;-66
2021/06/22 11:14:10;;;;;;;8.45;4.43;;;18.00;99.90;;;;;;5047338;28;20909;-65
2021/06/22 11:16:36;;;;;;;10.32;4.47;;;18.10;99.90;;;;;;5048323;28;20029;-65
2021/06/22 11:19:07;;;;;;;10.23;4.50;;;18.10;99.90;;;;;;5049165;28;20355;-66
2021/06/22 11:21:37;;;;;;;8.55;4.47;;;18.10;99.90;;;;;;5044777;28;20067;-65
2021/06/22 11:24:15;;;;;;;9.75;3.85;;;18.00;99.90;;;;;;5051462;28;20094;-65
2021/06/22 11:27:04;;;;;;;12.50;4.72;;;18.10;99.90;;;;;;5043420;28;20033;-65
2021/06/22 11:29:36;;;;;;;8.07;4.35;;;18.10;99.90;;;;;;5042179;28;20025;-64
2021/06/22 11:32:02;;;;;;;10.10;4.43;;;17.90;99.90;;;;;;5051561;28;20040;-65
2021/06/22 11:34:52;;;;;;;9.70;4.38;;;17.90;99.90;;;;;;5046834;28;20021;-65
2021/06/22 11:37:23;;;;;;;9.63;3.92;;;18.00;99.90;;;;;;5045430;28;20045;-63
2021/06/22 11:40:20;;;;;;;6.90;3.90;;;18.10;99.90;;;;;;5051284;28;20440;-65
2021/06/22 11:43:05;;;;;;;7.47;4.50;;;18.00;99.90;;;;;;5047159;28;20029;-65
2021/06/22 11:45:30;;;;;;;11.27;5.13;;;18.00;99.90;;;;;;5048855;28;20024;-65
2021/06/22 11:47:58;;;;;;;13.00;4.90;;;17.90;99.90;;;;;;5049899;28;20029;-65
2021/06/22 11:50:26;;;;;;;9.07;4.78;;;17.80;99.90;;;;;;5045927;28;20021;-65
2021/06/22 11:53:06;;;;;;;7.85;5.13;;;17.80;99.90;;;;;;5050208;28;20111;-64
2021/06/22 11:55:43;;;;;;;14.15;5.70;;;17.90;99.90;;;;;;5051398;28;20025;-65
2021/06/22 11:58:15;;;;;;;10.75;4.72;;;18.00;99.90;;;;;;5045180;28;20033;-65
2021/06/22 12:00:40;;;;;;;9.90;4.68;;;18.10;99.90;;;;;;5038665;28;20447;-65
2021/06/22 12:03:07;;;;;;;10.57;5.32;;;18.10;99.90;;;;;;5048738;28;20025;-65
2021/06/22 12:05:34;;;;;;;9.82;5.55;;;18.10;99.90;;;;;;5044305;28;20478;-65
2021/06/22 12:08:00;;;;;;;9.00;4.30;;;18.00;99.90;;;;;;5047420;28;20344;-65
2021/06/22 12:10:48;;;;;;;10.88;5.50;;;18.00;99.90;;;;;;5046993;28;20029;-65
2021/06/22 12:13:30;;;;;;;12.85;6.15;;;17.70;99.90;;;;;;5046959;28;20472;-65
2021/06/22 12:15:56;;;;;;;11.48;5.82;;;17.60;99.90;;;;;;5044993;28;20025;-65
2021/06/22 12:18:27;;;;;;;10.65;6.43;;;17.60;99.90;;;;;;5044355;28;20024;-65
2021/06/22 12:20:53;;;;;;;8.05;5.72;;;17.50;99.90;;;;;;5049516;28;20029;-65
2021/06/22 12:23:19;;;;;;;11.73;6.53;;;17.60;99.90;;;;;;5046875;28;20455;-65
2021/06/22 12:25:53;;;;;;;10.00;5.57;;;17.60;99.90;;;;;;5043887;28;20094;-65
2021/06/22 12:28:19;;;;;;;8.00;5.88;;;17.80;99.90;;;;;;5046724;28;20033;-65
2021/06/22 12:30:56;;;;;;;15.45;6.60;;;17.80;99.90;;;;;;5048576;28;20043;-65
2021/06/22 12:33:28;;;;;;;11.52;6.45;;;17.90;99.90;;;;;;5048481;28;20082;-67
2021/06/22 12:35:59;;;;;;;17.00;6.78;;;17.80;99.90;;;;;;5036654;28;20033;-65
2021/06/22 12:38:24;;;;;;;11.43;6.78;;;17.70;99.90;;;;;;5042547;28;20543;-64
2021/06/22 12:41:03;;;;;;;12.98;6.45;;;17.80;99.90;;;;;;5047427;28;20104;-65
2021/06/22 12:44:06;;;;;;;10.48;5.88;;;17.90;99.90;;;;;;5043078;28;20021;-65